Time;durP1;ratioP1;P1;durP2;ratioP2;P2;SDS_P1;SDS_P2;PMS_P1;PMS_P2;Temp;Humidity;BMP_temperature;BMP_pressure;BME280_temperature;BME280_humidity;BME280_pressure;Samples;Min_cycle;Max_cycle;Signal;HPM_P1;HPM_P2
2021/04/30 00:02:41;;;;;;;12.63;5.55;;;8.70;86.40;;;;;;5016533;28;20025;-86
2021/04/30 00:08:29;;;;;;;11.30;5.40;;;8.60;86.50;;;;;;5016484;28;20114;-85
2021/04/30 00:14:20;;;;;;;11.55;5.10;;;8.50;86.50;;;;;;5016665;28;20064;-85
2021/04/30 00:20:10;;;;;;;12.23;5.15;;;8.40;86.40;;;;;;5016258;28;20072;-85
2021/04/30 00:26:01;;;;;;;12.20;4.95;;;8.20;86.30;;;;;;5016191;28;20492;-86
2021/04/30 00:31:50;;;;;;;8.77;4.65;;;8.10;86.30;;;;;;5016150;28;20386;-87
2021/04/30 00:37:39;;;;;;;9.48;4.85;;;8.00;86.60;;;;;;5015880;28;20041;-87
2021/04/30 00:47:36;;;;;;;9.32;4.40;;;7.80;86.60;;;;;;5016033;28;20044;-87
2021/04/30 00:53:26;;;;;;;10.00;4.78;;;7.70;86.60;;;;;;5015664;28;20132;-86
2021/04/30 00:59:14;;;;;;;9.15;4.60;;;7.60;86.60;;;;;;5015450;28;20517;-88
2021/04/30 01:05:04;;;;;;;9.60;4.80;;;7.50;86.50;;;;;;5015440;28;20029;-88
2021/04/30 01:10:53;;;;;;;9.88;4.80;;;7.40;86.50;;;;;;5015829;28;20068;-88
2021/04/30 01:16:42;;;;;;;10.80;5.07;;;7.30;86.40;;;;;;5018615;28;20435;-88
2021/04/30 01:22:32;;;;;;;9.07;4.47;;;7.10;86.10;;;;;;5016126;28;20073;-88
2021/04/30 01:28:22;;;;;;;10.52;5.05;;;6.90;86.20;;;;;;5015739;28;20056;-87
2021/04/30 01:34:11;;;;;;;11.82;5.35;;;6.90;86.70;;;;;;5026781;28;20374;-86
2021/04/30 01:40:00;;;;;;;11.50;5.40;;;6.80;86.70;;;;;;5024944;28;20087;-86
2021/04/30 01:49:51;;;;;;;10.07;5.25;;;6.70;86.80;;;;;;5016129;28;20109;-87
2021/04/30 01:55:40;;;;;;;11.13;5.70;;;6.60;87.30;;;;;;5014781;28;20497;-87
2021/04/30 02:01:29;;;;;;;11.00;5.35;;;6.50;86.50;;;;;;5014747;28;20069;-87
2021/04/30 02:07:18;;;;;;;10.23;5.47;;;6.40;86.40;;;;;;5014714;28;20040;-86
2021/04/30 02:13:07;;;;;;;9.90;5.32;;;6.20;86.50;;;;;;5014438;28;20097;-86
2021/04/30 02:18:56;;;;;;;10.85;5.22;;;6.20;86.70;;;;;;5014496;28;20112;-86
2021/04/30 02:24:44;;;;;;;10.52;5.53;;;6.10;86.50;;;;;;5013822;28;20548;-89
2021/04/30 02:30:36;;;;;;;12.85;6.68;;;6.00;86.80;;;;;;5013973;28;20045;-88
2021/04/30 02:36:25;;;;;;;13.23;6.43;;;5.90;86.50;;;;;;5013843;28;20393;-88
2021/04/30 02:42:15;;;;;;;10.77;5.82;;;5.90;87.00;;;;;;5014111;28;20052;-88
2021/04/30 02:51:57;;;;;;;12.55;6.03;;;5.70;87.00;;;;;;5014054;28;20033;-88
2021/04/30 02:57:45;;;;;;;12.73;5.97;;;5.70;87.10;;;;;;5013686;28;20101;-88
2021/04/30 03:03:34;;;;;;;12.15;6.20;;;5.60;87.00;;;;;;5013869;28;20056;-88
2021/04/30 03:09:23;;;;;;;11.05;5.63;;;5.60;87.00;;;;;;5013487;28;20057;-86
2021/04/30 03:15:13;;;;;;;14.05;6.18;;;5.60;87.10;;;;;;5013891;28;20106;-87
2021/04/30 03:21:03;;;;;;;11.25;5.55;;;5.50;86.90;;;;;;5013706;28;20129;-87
2021/04/30 03:26:51;;;;;;;12.40;6.45;;;5.40;86.60;;;;;;5013741;28;20545;-86
2021/04/30 03:32:41;;;;;;;15.77;6.88;;;5.20;86.90;;;;;;5013629;28;20529;-87
2021/04/30 03:38:30;;;;;;;15.27;6.70;;;5.20;87.20;;;;;;5016907;28;20438;-86
2021/04/30 03:44:19;;;;;;;12.50;6.45;;;5.30;87.60;;;;;;5017204;28;20037;-87
2021/04/30 03:54:00;;;;;;;12.80;6.10;;;5.20;86.80;;;;;;5018244;28;20041;-87
2021/04/30 03:59:51;;;;;;;12.75;6.72;;;5.10;86.90;;;;;;5017410;28;20033;-88
2021/04/30 04:05:39;;;;;;;14.85;6.95;;;5.10;87.10;;;;;;5016999;28;20068;-89
2021/04/30 04:11:29;;;;;;;13.82;6.68;;;5.10;87.80;;;;;;5016794;28;20076;-89
2021/04/30 04:17:17;;;;;;;13.63;7.00;;;5.30;88.30;;;;;;5016916;28;20041;-90
2021/04/30 04:23:07;;;;;;;17.67;7.68;;;5.50;88.30;;;;;;5016597;28;20393;-89
2021/04/30 04:28:56;;;;;;;12.98;7.22;;;5.50;88.10;;;;;;5016455;28;20153;-89
2021/04/30 04:34:45;;;;;;;13.57;7.43;;;5.70;88.30;;;;;;5016311;28;20129;-88
2021/04/30 04:40:34;;;;;;;15.93;7.75;;;5.70;88.30;;;;;;5016255;28;20173;-88
2021/04/30 04:46:23;;;;;;;16.17;8.18;;;5.90;89.00;;;;;;5015697;28;20105;-88
2021/04/30 04:56:06;;;;;;;14.23;7.18;;;6.20;88.90;;;;;;5015992;28;20068;-88
2021/04/30 05:01:55;;;;;;;13.30;7.38;;;6.40;89.00;;;;;;5015460;28;20117;-88
2021/04/30 05:07:43;;;;;;;13.43;7.13;;;6.50;88.90;;;;;;5015436;28;20025;-90
2021/04/30 05:13:33;;;;;;;13.73;7.57;;;6.80;89.40;;;;;;5015278;28;20045;-90
2021/04/30 05:19:22;;;;;;;14.57;7.47;;;6.90;89.10;;;;;;5015223;28;20118;-88
2021/04/30 05:25:12;;;;;;;15.48;7.70;;;7.00;89.00;;;;;;5014979;28;20076;-88
2021/04/30 05:31:01;;;;;;;13.70;7.05;;;7.20;89.00;;;;;;5015023;28;20069;-85
2021/04/30 05:36:49;;;;;;;14.55;7.85;;;7.40;89.00;;;;;;5015065;28;20053;-86
2021/04/30 05:42:37;;;;;;;15.93;7.28;;;7.60;89.40;;;;;;5015004;28;20088;-85
2021/04/30 05:48:32;;;;;;;14.77;7.75;;;7.70;89.30;;;;;;5016442;28;20057;-89
2021/04/30 05:58:16;;;;;;;14.05;6.75;;;7.90;89.20;;;;;;5017265;28;20096;-85
2021/04/30 06:04:05;;;;;;;14.00;7.13;;;8.30;90.20;;;;;;5017423;28;20028;-85
2021/04/30 06:09:53;;;;;;;14.63;7.53;;;8.70;90.20;;;;;;5014841;28;20096;-85
2021/04/30 06:15:42;;;;;;;12.27;6.78;;;9.20;90.30;;;;;;5014432;28;20601;-85
2021/04/30 06:21:30;;;;;;;12.40;7.32;;;9.50;90.10;;;;;;5015994;28;20033;-83
2021/04/30 06:27:18;;;;;;;12.88;6.93;;;9.70;89.90;;;;;;5016279;28;20084;-85
2021/04/30 06:33:11;;;;;;;12.98;7.30;;;10.10;90.30;;;;;;5021029;28;20036;-84
2021/04/30 06:39:00;;;;;;;12.73;7.22;;;10.50;90.10;;;;;;5020636;28;20054;-85
2021/04/30 06:44:49;;;;;;;12.20;7.03;;;10.60;89.70;;;;;;5014110;28;20442;-84
2021/04/30 06:50:37;;;;;;;13.48;7.00;;;10.70;89.10;;;;;;5013915;28;20469;-85
2021/04/30 07:00:21;;;;;;;10.70;6.18;;;10.80;88.80;;;;;;5013951;28;20077;-85
2021/04/30 07:06:10;;;;;;;12.50;6.53;;;10.80;89.20;;;;;;5013611;28;20072;-85
2021/04/30 07:11:58;;;;;;;11.70;6.60;;;11.10;89.40;;;;;;5017471;28;20391;-84
2021/04/30 07:17:47;;;;;;;11.73;6.80;;;11.40;89.60;;;;;;5017441;28;20037;-85
2021/04/30 07:23:36;;;;;;;10.88;5.88;;;11.80;89.30;;;;;;5021810;28;20036;-85
2021/04/30 07:29:25;;;;;;;11.95;6.63;;;12.40;90.20;;;;;;5023646;28;20536;-85
2021/04/30 07:35:16;;;;;;;11.77;6.60;;;12.60;88.70;;;;;;5025897;28;20033;-84
2021/04/30 07:41:04;;;;;;;12.43;6.32;;;12.90;89.60;;;;;;5025077;28;20121;-85
2021/04/30 07:46:53;;;;;;;12.52;7.57;;;13.20;88.80;;;;;;5023964;28;20142;-85
2021/04/30 07:52:41;;;;;;;12.80;7.18;;;13.30;88.40;;;;;;5023351;28;20028;-85
2021/04/30 08:02:23;;;;;;;11.18;6.30;;;13.40;88.90;;;;;;5024050;28;20029;-84
2021/04/30 08:08:11;;;;;;;13.40;7.57;;;14.00;89.20;;;;;;5023456;28;20037;-84
2021/04/30 08:14:01;;;;;;;10.05;6.10;;;14.40;89.90;;;;;;5023172;28;20041;-85
2021/04/30 08:19:49;;;;;;;14.13;7.20;;;14.60;88.00;;;;;;5023304;28;20549;-85
2021/04/30 08:25:39;;;;;;;11.65;6.25;;;14.60;87.70;;;;;;5016462;28;20554;-85
2021/04/30 08:31:28;;;;;;;14.32;6.85;;;14.60;87.50;;;;;;5016363;28;20501;-85
2021/04/30 08:37:17;;;;;;;11.60;6.47;;;14.60;87.60;;;;;;5015891;28;20045;-86
2021/04/30 08:43:05;;;;;;;13.25;7.03;;;14.90;88.30;;;;;;5015890;28;20393;-85
2021/04/30 08:49:00;;;;;;;12.45;6.50;;;15.40;88.90;;;;;;5015980;28;20049;-85
2021/04/30 08:54:53;;;;;;;11.70;6.00;;;15.80;88.80;;;;;;5015643;28;20053;-85
2021/04/30 09:04:36;;;;;;;13.32;7.40;;;15.90;87.50;;;;;;5015548;28;20085;-85
2021/04/30 09:10:26;;;;;;;11.73;6.57;;;16.20;88.30;;;;;;5015597;28;20037;-85
2021/04/30 09:16:15;;;;;;;13.00;6.97;;;16.90;89.80;;;;;;5015549;28;20529;-86
2021/04/30 09:22:08;;;;;;;12.93;7.47;;;17.40;88.80;;;;;;5020189;28;20498;-86
2021/04/30 09:27:58;;;;;;;13.50;7.40;;;17.70;88.20;;;;;;5015202;28;20036;-85
2021/04/30 09:33:45;;;;;;;11.73;6.88;;;18.00;86.60;;;;;;5015103;28;20389;-86
2021/04/30 09:39:48;;;;;;;12.30;6.95;;;18.00;86.60;;;;;;5015093;28;20052;-85
2021/04/30 09:45:37;;;;;;;12.32;7.03;;;17.80;85.20;;;;;;5014719;28;20389;-85
2021/04/30 09:51:52;;;;;;;13.07;7.68;;;18.20;86.20;;;;;;5014840;28;20049;-86
2021/04/30 09:57:40;;;;;;;14.95;7.55;;;18.20;84.00;;;;;;5014314;28;20441;-85
2021/04/30 10:07:32;;;;;;;11.43;6.43;;;19.10;85.50;;;;;;5015707;28;20394;-86
2021/04/30 10:13:20;;;;;;;12.65;7.05;;;19.70;86.60;;;;;;5024598;28;20093;-86
2021/04/30 10:19:08;;;;;;;11.88;7.47;;;20.10;85.80;;;;;;5022422;28;20105;-86
2021/04/30 10:24:59;;;;;;;11.55;7.03;;;20.40;84.40;;;;;;5022845;28;20029;-87
2021/04/30 10:31:06;;;;;;;11.80;7.38;;;20.40;84.60;;;;;;5020116;28;20037;-86
2021/04/30 10:37:01;;;;;;;10.77;6.88;;;20.70;83.40;;;;;;5014579;28;20064;-88
2021/04/30 10:42:51;;;;;;;11.35;6.78;;;20.80;84.00;;;;;;5014216;28;20081;-87
2021/04/30 10:49:08;;;;;;;11.25;5.70;;;21.40;84.80;;;;;;5014135;28;20503;-88
2021/04/30 10:55:07;;;;;;;11.85;6.82;;;21.80;83.10;;;;;;5014227;28;20025;-87
2021/04/30 11:00:56;;;;;;;9.70;5.35;;;21.60;80.80;;;;;;5013833;28;20037;-85
2021/04/30 11:10:46;;;;;;;10.65;6.68;;;21.90;83.30;;;;;;5013868;28;20048;-88
2021/04/30 11:16:40;;;;;;;9.98;6.15;;;22.50;83.30;;;;;;5013559;28;20068;-88
2021/04/30 11:22:30;;;;;;;11.20;5.57;;;23.20;82.10;;;;;;5013750;28;20485;-88
2021/04/30 11:28:32;;;;;;;10.90;6.18;;;23.30;79.50;;;;;;5013405;28;20081;-88
2021/04/30 11:34:27;;;;;;;11.93;6.30;;;23.30;78.00;;;;;;5013256;28;20053;-86
2021/04/30 11:40:23;;;;;;;11.25;6.30;;;23.80;81.70;;;;;;5013382;28;20081;-87
2021/04/30 11:46:44;;;;;;;11.27;5.82;;;23.90;76.90;;;;;;5013364;28;20064;-87
2021/04/30 11:52:36;;;;;;;11.48;5.80;;;23.10;78.20;;;;;;5013405;28;20081;-91
2021/04/30 11:58:45;;;;;;;11.32;5.63;;;23.40;78.50;;;;;;5016837;28;20049;-88
2021/04/30 12:04:51;;;;;;;10.82;6.28;;;23.30;76.10;;;;;;5018893;28;20069;-90
2021/04/30 12:10:26;;;;;;;10.38;6.30;;;22.40;74.50;;;;;;5016508;28;19913;-87
2021/04/30 12:16:18;;;;;;;11.35;6.00;;;22.10;76.70;;;;;;5016570;28;20121;-87
2021/04/30 12:22:19;;;;;;;12.65;6.82;;;21.70;76.40;;;;;;5016208;28;20033;-86
2021/04/30 12:28:20;;;;;;;12.70;6.60;;;21.00;74.20;;;;;;5016411;28;20118;-86
2021/04/30 12:34:12;;;;;;;12.38;6.32;;;20.30;75.00;;;;;;5016279;28;20096;-86
2021/04/30 12:40:04;;;;;;;12.93;6.15;;;18.90;74.00;;;;;;5015928;28;20076;-86
2021/04/30 12:45:54;;;;;;;11.90;6.40;;;18.50;75.80;;;;;;5016029;28;20149;-86
2021/04/30 12:51:54;;;;;;;10.88;6.07;;;18.20;75.00;;;;;;5015879;28;20041;-86
2021/04/30 12:57:42;;;;;;;16.25;6.45;;;18.00;75.40;;;;;;5015505;28;20097;-86
2021/04/30 13:03:35;;;;;;;10.95;5.47;;;17.80;74.90;;;;;;5015437;28;20085;-87
2021/04/30 13:13:26;;;;;;;12.57;5.53;;;17.80;75.80;;;;;;5015478;28;20493;-86
2021/04/30 13:19:16;;;;;;;11.73;5.82;;;17.70;74.60;;;;;;5015154;28;20076;-86
2021/04/30 13:25:06;;;;;;;10.52;6.47;;;17.30;75.10;;;;;;5015067;28;20500;-86
2021/04/30 13:30:55;;;;;;;11.23;5.90;;;16.80;74.20;;;;;;5015364;28;20374;-89
2021/04/30 13:36:52;;;;;;;10.00;5.75;;;16.60;74.20;;;;;;5014964;28;20065;-87
2021/04/30 13:42:44;;;;;;;12.70;7.40;;;16.40;73.60;;;;;;5015104;28;20036;-87
2021/04/30 13:48:39;;;;;;;11.85;6.60;;;16.00;73.30;;;;;;5015651;28;20029;-87
2021/04/30 13:54:27;;;;;;;10.25;5.57;;;15.70;74.00;;;;;;5014966;28;20036;-88
2021/04/30 14:00:19;;;;;;;12.30;4.90;;;15.80;74.60;;;;;;5014510;28;20069;-84
2021/04/30 14:06:07;;;;;;;10.73;5.35;;;15.40;72.60;;;;;;5014339;28;20032;-84
2021/04/30 14:15:56;;;;;;;12.15;5.03;;;15.10;73.50;;;;;;5014561;28;20127;-85
2021/04/30 14:21:44;;;;;;;11.75;5.03;;;14.90;73.20;;;;;;5017942;28;20055;-87
2021/04/30 14:27:40;;;;;;;10.43;5.43;;;14.60;73.60;;;;;;5021290;28;20090;-85
2021/04/30 14:33:28;;;;;;;10.05;5.28;;;14.40;73.60;;;;;;5016341;28;20119;-85
2021/04/30 14:39:17;;;;;;;11.18;5.95;;;14.30;74.20;;;;;;5018007;28;20081;-84
2021/04/30 14:45:09;;;;;;;10.50;5.13;;;14.30;73.70;;;;;;5021370;28;20049;-85
2021/04/30 14:50:59;;;;;;;12.02;4.82;;;14.20;74.00;;;;;;5014768;28;20536;-85
2021/04/30 14:56:47;;;;;;;9.25;4.78;;;13.70;72.20;;;;;;5014090;28;20033;-85
2021/04/30 15:02:36;;;;;;;11.80;5.30;;;13.40;73.10;;;;;;5013773;28;20033;-84
2021/04/30 15:08:28;;;;;;;9.00;4.43;;;13.30;74.70;;;;;;5013228;28;20108;-84
2021/04/30 15:18:18;;;;;;;9.00;4.50;;;13.10;74.40;;;;;;5013185;28;20116;-85
2021/04/30 15:24:08;;;;;;;9.77;4.53;;;13.00;74.00;;;;;;5013676;28;20532;-85
2021/04/30 15:29:57;;;;;;;10.85;5.20;;;12.50;72.90;;;;;;5013119;28;20056;-85
2021/04/30 15:35:45;;;;;;;10.73;5.63;;;12.20;74.20;;;;;;5016802;28;20157;-84
2021/04/30 15:41:34;;;;;;;10.40;5.75;;;12.00;74.30;;;;;;5017055;28;20563;-87
2021/04/30 15:47:23;;;;;;;9.95;5.28;;;12.10;75.70;;;;;;5016698;28;20068;-87
2021/04/30 15:53:11;;;;;;;11.60;6.50;;;12.30;75.40;;;;;;5016840;28;20060;-85
2021/04/30 15:59:01;;;;;;;10.98;5.60;;;12.10;74.90;;;;;;5016644;28;20382;-84
2021/04/30 16:04:49;;;;;;;10.65;5.95;;;12.00;75.10;;;;;;5016434;28;20094;-85
2021/04/30 16:10:37;;;;;;;11.70;5.95;;;11.80;74.70;;;;;;5016416;28;20402;-84
2021/04/30 16:20:22;;;;;;;9.30;4.95;;;11.50;74.90;;;;;;5016659;28;20056;-86
2021/04/30 16:26:10;;;;;;;12.25;6.50;;;11.50;75.50;;;;;;5016114;28;20157;-86
2021/04/30 16:31:58;;;;;;;11.77;5.80;;;11.50;75.50;;;;;;5016140;28;20056;-86
2021/04/30 16:37:46;;;;;;;11.93;6.65;;;11.40;76.00;;;;;;5015890;28;20048;-84
2021/04/30 16:43:36;;;;;;;11.20;5.68;;;11.40;75.90;;;;;;5014973;28;20553;-86
2021/04/30 16:49:24;;;;;;;13.52;6.75;;;11.30;75.80;;;;;;5015921;28;20117;-87
2021/04/30 16:55:13;;;;;;;12.68;7.15;;;11.30;75.90;;;;;;5015548;28;20178;-88
2021/04/30 17:01:02;;;;;;;11.48;6.25;;;11.20;76.20;;;;;;5015511;28;20488;-86
2021/04/30 17:06:50;;;;;;;11.63;5.50;;;11.10;76.10;;;;;;5015580;28;20045;-86
2021/04/30 17:12:38;;;;;;;12.90;6.95;;;11.00;76.40;;;;;;5015400;28;20032;-87
2021/04/30 17:22:19;;;;;;;13.73;6.68;;;10.90;76.40;;;;;;5016919;28;20442;-85
2021/04/30 17:28:08;;;;;;;15.45;8.15;;;10.80;76.40;;;;;;5017827;28;20037;-86
2021/04/30 17:33:57;;;;;;;11.60;6.30;;;10.60;76.30;;;;;;5016302;28;20077;-90
2021/04/30 17:39:45;;;;;;;13.52;6.90;;;10.50;76.60;;;;;;5014818;28;20052;-88
2021/04/30 17:45:34;;;;;;;12.88;6.95;;;10.50;77.00;;;;;;5016267;28;20040;-86
2021/04/30 17:51:23;;;;;;;12.35;6.22;;;10.50;76.80;;;;;;5014608;28;20382;-86
2021/04/30 17:57:10;;;;;;;12.57;7.28;;;10.50;77.20;;;;;;5014630;28;20056;-83
2021/04/30 18:03:00;;;;;;;16.13;7.88;;;10.40;76.90;;;;;;5014253;28;20477;-86
2021/04/30 18:08:49;;;;;;;12.70;6.22;;;10.40;77.50;;;;;;5014908;28;20048;-86
2021/04/30 18:14:38;;;;;;;13.05;6.43;;;10.30;77.30;;;;;;5014838;28;20044;-85
2021/04/30 18:24:19;;;;;;;7.97;4.45;;;10.10;77.10;;;;;;5014119;28;20081;-84
2021/04/30 18:30:19;;;;;;;11.73;6.38;;;9.90;77.10;;;;;;5014076;28;20036;-87
2021/04/30 18:36:32;;;;;;;13.45;6.85;;;9.60;76.50;;;;;;5013858;28;20401;-89
2021/04/30 18:42:20;;;;;;;12.75;7.03;;;9.40;77.60;;;;;;5015950;28;20113;-85
2021/04/30 18:48:11;;;;;;;12.70;6.78;;;9.30;77.90;;;;;;5017583;28;20041;-86
2021/04/30 18:53:59;;;;;;;13.27;7.30;;;9.40;78.00;;;;;;5018508;28;20025;-85
2021/04/30 18:59:48;;;;;;;12.77;6.97;;;9.40;78.40;;;;;;5014343;28;20506;-85
2021/04/30 19:05:36;;;;;;;13.68;7.80;;;9.40;78.60;;;;;;5014900;28;20378;-85
2021/04/30 19:11:25;;;;;;;12.25;6.97;;;9.50;78.70;;;;;;5017614;28;20536;-84
2021/04/30 19:17:13;;;;;;;14.60;7.15;;;9.50;78.70;;;;;;5018694;28;20036;-87
2021/04/30 19:27:04;;;;;;;11.55;6.25;;;9.40;78.50;;;;;;5017802;28;20057;-87
2021/04/30 19:32:54;;;;;;;11.63;6.10;;;9.30;78.80;;;;;;5017661;28;20029;-88
2021/04/30 19:38:43;;;;;;;13.32;7.03;;;9.30;79.00;;;;;;5017836;28;20048;-87
2021/04/30 19:44:32;;;;;;;13.68;6.03;;;9.30;79.10;;;;;;5017244;28;20033;-86
2021/04/30 19:50:21;;;;;;;16.58;9.13;;;9.30;79.40;;;;;;5017269;28;20036;-86
2021/04/30 19:56:09;;;;;;;14.70;8.63;;;9.20;79.10;;;;;;5017656;28;20076;-87
2021/04/30 20:01:58;;;;;;;13.15;7.07;;;9.20;79.50;;;;;;5016958;28;20069;-85
2021/04/30 20:07:47;;;;;;;15.15;7.63;;;9.20;79.60;;;;;;5018049;28;20029;-86
2021/04/30 20:13:36;;;;;;;15.13;7.78;;;9.30;79.60;;;;;;5016516;28;20029;-85
2021/04/30 20:19:26;;;;;;;13.60;7.32;;;9.20;79.60;;;;;;5016303;28;20153;-87
2021/04/30 20:31:38;;;;;;;15.30;7.55;;;9.20;80.00;;;;;;5016363;28;20152;-86
2021/04/30 20:37:31;;;;;;;13.73;7.40;;;9.20;79.70;;;;;;5016003;28;20025;-86
2021/04/30 20:43:20;;;;;;;14.00;7.20;;;9.10;80.00;;;;;;5016174;28;20040;-85
2021/04/30 20:49:10;;;;;;;14.02;7.72;;;9.10;80.30;;;;;;5015809;28;20072;-87
2021/04/30 20:54:58;;;;;;;13.10;7.47;;;9.20;80.10;;;;;;5015886;28;20056;-86
2021/04/30 21:00:47;;;;;;;10.52;5.40;;;9.00;80.20;;;;;;5015836;28;20085;-87
2021/04/30 21:06:36;;;;;;;11.68;5.97;;;9.00;80.20;;;;;;5015660;28;20052;-85
2021/04/30 21:14:29;;;;;;;12.20;6.68;;;8.90;80.40;;;;;;5015602;28;20028;-85
2021/04/30 21:18:48;;;;;;;16.63;7.53;;;8.90;80.60;;;;;;5015374;28;20049;-85
2021/04/30 21:24:40;;;;;;;13.40;7.47;;;8.90;80.50;;;;;;5015055;28;20500;-86
2021/04/30 21:30:29;;;;;;;14.23;7.13;;;8.90;81.00;;;;;;5015097;28;20120;-86
2021/04/30 21:36:18;;;;;;;15.98;8.32;;;8.90;80.90;;;;;;5015225;28;20533;-87
2021/04/30 21:42:07;;;;;;;13.75;8.05;;;8.90;81.40;;;;;;5014914;28;20036;-88
2021/04/30 21:47:57;;;;;;;14.10;7.88;;;8.90;81.00;;;;;;5015510;28;20470;-88
2021/04/30 21:53:45;;;;;;;15.18;8.32;;;8.90;81.00;;;;;;5014882;28;20072;-86
2021/04/30 21:59:35;;;;;;;17.90;8.95;;;8.80;81.20;;;;;;5014453;28;20509;-86
2021/04/30 22:05:24;;;;;;;17.10;9.57;;;8.80;81.50;;;;;;5014484;28;20501;-86
2021/04/30 22:11:12;;;;;;;13.38;7.32;;;8.70;81.30;;;;;;5014570;28;20382;-86
2021/04/30 22:17:02;;;;;;;13.43;6.95;;;8.60;81.40;;;;;;5014683;28;20489;-85
2021/04/30 22:22:52;;;;;;;14.02;7.00;;;8.70;81.70;;;;;;5014637;28;20071;-86
2021/04/30 22:32:42;;;;;;;16.20;8.07;;;8.60;82.00;;;;;;5014292;28;20093;-86
2021/04/30 22:38:31;;;;;;;14.88;7.85;;;8.60;82.10;;;;;;5013892;28;20537;-86
2021/04/30 22:44:20;;;;;;;18.00;10.27;;;8.60;82.20;;;;;;5014016;28;20036;-86
2021/04/30 22:50:09;;;;;;;17.83;9.77;;;8.60;82.20;;;;;;5019725;28;20079;-86
2021/04/30 22:56:00;;;;;;;17.40;10.20;;;8.60;82.00;;;;;;5014523;28;20117;-86
2021/04/30 23:01:49;;;;;;;18.00;10.15;;;8.60;82.10;;;;;;5015577;28;20120;-87
2021/04/30 23:07:38;;;;;;;18.00;8.77;;;8.60;82.60;;;;;;5015643;28;20026;-86
2021/04/30 23:13:26;;;;;;;18.45;10.35;;;8.60;82.50;;;;;;5013712;28;20474;-84
2021/04/30 23:19:15;;;;;;;18.92;10.93;;;8.70;82.80;;;;;;5013439;28;20049;-84
2021/04/30 23:25:04;;;;;;;18.77;10.90;;;8.70;82.50;;;;;;5013787;28;20061;-85
2021/04/30 23:34:47;;;;;;;16.48;8.93;;;8.60;82.80;;;;;;5013760;28;20105;-87
2021/04/30 23:40:35;;;;;;;20.30;10.07;;;8.50;82.60;;;;;;5013317;28;20088;-88
2021/04/30 23:46:24;;;;;;;18.17;9.95;;;8.50;82.70;;;;;;5013519;28;20041;-86
2021/04/30 23:52:14;;;;;;;17.63;9.85;;;8.50;83.00;;;;;;5015478;28;20421;-86
2021/04/30 23:58:03;;;;;;;17.15;8.98;;;8.50;83.10;;;;;;5016955;28;20036;-86
